sensor_id;sensor_type;location;lat;lon;timestamp;P1;durP1;ratioP1;P2;durP2;ratioP2
46507;SDS011;32223;53.654;10.014;2023-12-14T00:02:20;6.32;;;1.60;;
46507;SDS011;32223;53.654;10.014;2023-12-14T00:04:45;2.80;;;1.20;;
46507;SDS011;32223;53.654;10.014;2023-12-14T00:07:11;3.33;;;1.40;;
46507;SDS011;32223;53.654;10.014;2023-12-14T00:09:39;5.15;;;1.20;;
46507;SDS011;32223;53.654;10.014;2023-12-14T00:12:05;3.17;;;1.15;;
46507;SDS011;32223;53.654;10.014;2023-12-14T00:14:31;3.22;;;1.00;;
46507;SDS011;32223;53.654;10.014;2023-12-14T00:16:56;4.20;;;1.15;;
46507;SDS011;32223;53.654;10.014;2023-12-14T00:19:24;2.95;;;1.50;;
46507;SDS011;32223;53.654;10.014;2023-12-14T00:21:49;3.08;;;1.40;;
46507;SDS011;32223;53.654;10.014;2023-12-14T00:24:15;6.30;;;1.75;;
46507;SDS011;32223;53.654;10.014;2023-12-14T00:26:41;5.68;;;1.88;;
46507;SDS011;32223;53.654;10.014;2023-12-14T00:29:06;5.72;;;1.80;;
46507;SDS011;32223;53.654;10.014;2023-12-14T00:31:32;5.93;;;1.80;;
46507;SDS011;32223;53.654;10.014;2023-12-14T00:33:57;6.25;;;1.65;;
46507;SDS011;32223;53.654;10.014;2023-12-14T00:36:23;3.67;;;1.52;;
46507;SDS011;32223;53.654;10.014;2023-12-14T00:38:49;5.38;;;1.50;;
46507;SDS011;32223;53.654;10.014;2023-12-14T00:41:14;6.40;;;2.08;;
46507;SDS011;32223;53.654;10.014;2023-12-14T00:43:40;4.88;;;1.77;;
46507;SDS011;32223;53.654;10.014;2023-12-14T00:46:05;3.35;;;1.27;;
46507;SDS011;32223;53.654;10.014;2023-12-14T00:48:32;4.03;;;1.23;;
46507;SDS011;32223;53.654;10.014;2023-12-14T00:50:58;8.80;;;1.13;;
46507;SDS011;32223;53.654;10.014;2023-12-14T00:53:23;2.67;;;1.42;;
46507;SDS011;32223;53.654;10.014;2023-12-14T00:55:49;2.83;;;1.05;;
46507;SDS011;32223;53.654;10.014;2023-12-14T00:58:14;6.20;;;2.40;;
46507;SDS011;32223;53.654;10.014;2023-12-14T01:00:40;2.47;;;1.10;;
46507;SDS011;32223;53.654;10.014;2023-12-14T01:03:06;4.63;;;1.50;;
46507;SDS011;32223;53.654;10.014;2023-12-14T01:05:32;2.47;;;1.10;;
46507;SDS011;32223;53.654;10.014;2023-12-14T01:07:57;2.88;;;0.73;;
46507;SDS011;32223;53.654;10.014;2023-12-14T01:10:23;5.40;;;1.42;;
46507;SDS011;32223;53.654;10.014;2023-12-14T01:12:48;2.50;;;1.15;;
46507;SDS011;32223;53.654;10.014;2023-12-14T01:15:15;4.57;;;2.03;;
46507;SDS011;32223;53.654;10.014;2023-12-14T01:17:41;6.30;;;1.30;;
46507;SDS011;32223;53.654;10.014;2023-12-14T01:20:06;4.93;;;1.20;;
46507;SDS011;32223;53.654;10.014;2023-12-14T01:22:33;4.45;;;1.35;;
46507;SDS011;32223;53.654;10.014;2023-12-14T01:24:58;2.53;;;1.10;;
46507;SDS011;32223;53.654;10.014;2023-12-14T01:27:24;5.55;;;1.17;;
46507;SDS011;32223;53.654;10.014;2023-12-14T01:29:50;5.30;;;1.13;;
46507;SDS011;32223;53.654;10.014;2023-12-14T01:32:16;3.78;;;1.45;;
46507;SDS011;32223;53.654;10.014;2023-12-14T01:34:41;3.47;;;1.00;;
46507;SDS011;32223;53.654;10.014;2023-12-14T01:37:07;4.15;;;1.80;;
46507;SDS011;32223;53.654;10.014;2023-12-14T01:39:32;3.15;;;1.85;;
46507;SDS011;32223;53.654;10.014;2023-12-14T01:41:58;3.30;;;1.20;;
46507;SDS011;32223;53.654;10.014;2023-12-14T01:44:24;6.53;;;1.48;;
46507;SDS011;32223;53.654;10.014;2023-12-14T01:46:49;4.97;;;1.80;;
46507;SDS011;32223;53.654;10.014;2023-12-14T01:49:15;2.53;;;1.17;;
46507;SDS011;32223;53.654;10.014;2023-12-14T01:51:40;6.47;;;1.33;;
46507;SDS011;32223;53.654;10.014;2023-12-14T01:54:06;4.25;;;1.67;;
46507;SDS011;32223;53.654;10.014;2023-12-14T01:56:32;3.38;;;1.63;;
46507;SDS011;32223;53.654;10.014;2023-12-14T01:58:57;4.70;;;1.42;;
46507;SDS011;32223;53.654;10.014;2023-12-14T02:01:25;4.78;;;1.17;;
46507;SDS011;32223;53.654;10.014;2023-12-14T02:03:53;4.72;;;1.40;;
46507;SDS011;32223;53.654;10.014;2023-12-14T02:06:19;5.55;;;1.20;;
46507;SDS011;32223;53.654;10.014;2023-12-14T02:08:45;5.10;;;1.42;;
46507;SDS011;32223;53.654;10.014;2023-12-14T02:11:11;6.55;;;1.75;;
46507;SDS011;32223;53.654;10.014;2023-12-14T02:13:37;6.85;;;1.88;;
46507;SDS011;32223;53.654;10.014;2023-12-14T02:16:02;5.78;;;1.63;;
46507;SDS011;32223;53.654;10.014;2023-12-14T02:18:28;4.22;;;1.48;;
46507;SDS011;32223;53.654;10.014;2023-12-14T02:20:54;4.57;;;2.00;;
46507;SDS011;32223;53.654;10.014;2023-12-14T02:23:20;3.78;;;1.00;;
46507;SDS011;32223;53.654;10.014;2023-12-14T02:25:45;4.85;;;1.65;;
46507;SDS011;32223;53.654;10.014;2023-12-14T02:28:11;4.75;;;1.42;;
46507;SDS011;32223;53.654;10.014;2023-12-14T02:30:37;5.70;;;1.17;;
46507;SDS011;32223;53.654;10.014;2023-12-14T02:33:02;4.47;;;1.50;;
46507;SDS011;32223;53.654;10.014;2023-12-14T02:35:28;3.47;;;1.20;;
46507;SDS011;32223;53.654;10.014;2023-12-14T02:37:53;3.28;;;1.40;;
46507;SDS011;32223;53.654;10.014;2023-12-14T02:40:19;6.35;;;2.45;;
46507;SDS011;32223;53.654;10.014;2023-12-14T02:42:45;7.65;;;2.22;;
46507;SDS011;32223;53.654;10.014;2023-12-14T02:45:10;5.25;;;2.13;;
46507;SDS011;32223;53.654;10.014;2023-12-14T02:47:36;4.88;;;1.75;;
46507;SDS011;32223;53.654;10.014;2023-12-14T02:50:02;3.00;;;1.30;;
46507;SDS011;32223;53.654;10.014;2023-12-14T02:52:27;7.55;;;1.80;;
46507;SDS011;32223;53.654;10.014;2023-12-14T02:54:53;6.25;;;2.50;;
46507;SDS011;32223;53.654;10.014;2023-12-14T02:57:18;6.75;;;1.10;;
46507;SDS011;32223;53.654;10.014;2023-12-14T02:59:44;4.97;;;1.20;;
46507;SDS011;32223;53.654;10.014;2023-12-14T03:02:10;7.90;;;1.85;;
46507;SDS011;32223;53.654;10.014;2023-12-14T03:04:37;3.63;;;1.45;;
46507;SDS011;32223;53.654;10.014;2023-12-14T03:07:04;11.95;;;1.65;;
46507;SDS011;32223;53.654;10.014;2023-12-14T03:09:30;3.42;;;1.00;;
46507;SDS011;32223;53.654;10.014;2023-12-14T03:11:56;8.75;;;1.60;;
46507;SDS011;32223;53.654;10.014;2023-12-14T03:14:22;3.03;;;1.63;;
46507;SDS011;32223;53.654;10.014;2023-12-14T03:16:48;6.18;;;2.13;;
46507;SDS011;32223;53.654;10.014;2023-12-14T03:19:14;1.90;;;0.90;;
46507;SDS011;32223;53.654;10.014;2023-12-14T03:21:40;3.90;;;2.13;;
46507;SDS011;32223;53.654;10.014;2023-12-14T03:24:06;4.85;;;1.58;;
46507;SDS011;32223;53.654;10.014;2023-12-14T03:26:32;3.90;;;1.38;;
46507;SDS011;32223;53.654;10.014;2023-12-14T03:28:58;3.28;;;1.23;;
46507;SDS011;32223;53.654;10.014;2023-12-14T03:31:23;5.25;;;1.80;;
46507;SDS011;32223;53.654;10.014;2023-12-14T03:33:49;4.93;;;1.92;;
46507;SDS011;32223;53.654;10.014;2023-12-14T03:36:15;3.35;;;1.63;;
46507;SDS011;32223;53.654;10.014;2023-12-14T03:38:40;4.70;;;1.60;;
46507;SDS011;32223;53.654;10.014;2023-12-14T03:41:06;4.00;;;1.80;;
46507;SDS011;32223;53.654;10.014;2023-12-14T03:43:31;3.88;;;1.30;;
46507;SDS011;32223;53.654;10.014;2023-12-14T03:45:57;3.05;;;1.58;;
46507;SDS011;32223;53.654;10.014;2023-12-14T03:48:22;5.55;;;1.77;;
46507;SDS011;32223;53.654;10.014;2023-12-14T03:50:48;3.53;;;1.33;;
46507;SDS011;32223;53.654;10.014;2023-12-14T03:53:13;3.97;;;1.55;;
46507;SDS011;32223;53.654;10.014;2023-12-14T03:55:39;5.38;;;1.88;;
46507;SDS011;32223;53.654;10.014;2023-12-14T03:58:05;9.10;;;1.98;;
46507;SDS011;32223;53.654;10.014;2023-12-14T04:00:30;4.60;;;1.90;;
46507;SDS011;32223;53.654;10.014;2023-12-14T04:02:56;7.70;;;2.22;;
46507;SDS011;32223;53.654;10.014;2023-12-14T04:05:21;4.07;;;1.98;;
46507;SDS011;32223;53.654;10.014;2023-12-14T04:07:47;4.57;;;2.08;;
46507;SDS011;32223;53.654;10.014;2023-12-14T04:10:13;7.95;;;2.83;;
46507;SDS011;32223;53.654;10.014;2023-12-14T04:12:39;3.58;;;2.03;;
46507;SDS011;32223;53.654;10.014;2023-12-14T04:15:05;3.40;;;1.80;;
46507;SDS011;32223;53.654;10.014;2023-12-14T04:17:33;4.63;;;2.00;;
46507;SDS011;32223;53.654;10.014;2023-12-14T04:19:59;5.22;;;2.65;;
46507;SDS011;32223;53.654;10.014;2023-12-14T04:22:26;6.30;;;1.98;;
46507;SDS011;32223;53.654;10.014;2023-12-14T04:24:51;4.18;;;1.58;;
46507;SDS011;32223;53.654;10.014;2023-12-14T04:27:17;6.53;;;2.33;;
46507;SDS011;32223;53.654;10.014;2023-12-14T04:29:43;5.93;;;1.90;;
46507;SDS011;32223;53.654;10.014;2023-12-14T04:32:09;8.13;;;2.17;;
46507;SDS011;32223;53.654;10.014;2023-12-14T04:34:35;3.72;;;1.95;;
46507;SDS011;32223;53.654;10.014;2023-12-14T04:37:01;4.55;;;2.50;;
46507;SDS011;32223;53.654;10.014;2023-12-14T04:39:26;7.88;;;2.72;;
46507;SDS011;32223;53.654;10.014;2023-12-14T04:41:52;7.68;;;2.70;;
46507;SDS011;32223;53.654;10.014;2023-12-14T04:44:20;5.18;;;2.50;;
46507;SDS011;32223;53.654;10.014;2023-12-14T04:46:46;6.28;;;2.45;;
46507;SDS011;32223;53.654;10.014;2023-12-14T04:49:15;6.72;;;2.38;;
46507;SDS011;32223;53.654;10.014;2023-12-14T04:51:41;7.32;;;2.80;;
46507;SDS011;32223;53.654;10.014;2023-12-14T04:54:07;7.80;;;3.15;;
46507;SDS011;32223;53.654;10.014;2023-12-14T04:56:33;3.92;;;2.47;;
46507;SDS011;32223;53.654;10.014;2023-12-14T04:58:59;6.78;;;2.58;;
46507;SDS011;32223;53.654;10.014;2023-12-14T05:01:25;7.85;;;2.50;;
46507;SDS011;32223;53.654;10.014;2023-12-14T05:03:53;8.95;;;3.28;;
46507;SDS011;32223;53.654;10.014;2023-12-14T05:06:20;9.35;;;2.55;;
46507;SDS011;32223;53.654;10.014;2023-12-14T05:08:46;6.13;;;3.53;;
46507;SDS011;32223;53.654;10.014;2023-12-14T05:11:12;7.72;;;2.78;;
46507;SDS011;32223;53.654;10.014;2023-12-14T05:13:38;11.90;;;3.47;;
46507;SDS011;32223;53.654;10.014;2023-12-14T05:16:04;4.60;;;2.58;;
46507;SDS011;32223;53.654;10.014;2023-12-14T05:18:30;9.18;;;3.08;;
46507;SDS011;32223;53.654;10.014;2023-12-14T05:20:56;7.10;;;3.50;;
46507;SDS011;32223;53.654;10.014;2023-12-14T05:23:21;10.88;;;4.78;;
46507;SDS011;32223;53.654;10.014;2023-12-14T05:25:48;7.45;;;3.40;;
46507;SDS011;32223;53.654;10.014;2023-12-14T05:28:14;8.18;;;4.43;;
46507;SDS011;32223;53.654;10.014;2023-12-14T05:30:40;9.60;;;4.43;;
46507;SDS011;32223;53.654;10.014;2023-12-14T05:33:06;8.80;;;3.70;;
46507;SDS011;32223;53.654;10.014;2023-12-14T05:35:32;6.57;;;2.97;;
46507;SDS011;32223;53.654;10.014;2023-12-14T05:37:57;8.63;;;4.07;;
46507;SDS011;32223;53.654;10.014;2023-12-14T05:40:23;10.80;;;4.15;;
46507;SDS011;32223;53.654;10.014;2023-12-14T05:42:49;7.82;;;3.97;;
46507;SDS011;32223;53.654;10.014;2023-12-14T05:45:15;10.07;;;3.92;;
46507;SDS011;32223;53.654;10.014;2023-12-14T05:47:40;8.45;;;3.33;;
46507;SDS011;32223;53.654;10.014;2023-12-14T05:50:06;10.60;;;3.92;;
46507;SDS011;32223;53.654;10.014;2023-12-14T05:52:35;7.43;;;3.63;;
46507;SDS011;32223;53.654;10.014;2023-12-14T05:55:01;8.48;;;3.67;;
46507;SDS011;32223;53.654;10.014;2023-12-14T05:57:26;8.60;;;3.97;;
46507;SDS011;32223;53.654;10.014;2023-12-14T05:59:52;7.72;;;3.65;;
46507;SDS011;32223;53.654;10.014;2023-12-14T06:02:18;5.63;;;3.45;;
46507;SDS011;32223;53.654;10.014;2023-12-14T06:04:44;6.75;;;3.67;;
46507;SDS011;32223;53.654;10.014;2023-12-14T06:07:09;12.65;;;4.90;;
46507;SDS011;32223;53.654;10.014;2023-12-14T06:09:35;9.52;;;3.83;;
46507;SDS011;32223;53.654;10.014;2023-12-14T06:12:01;11.30;;;4.75;;
46507;SDS011;32223;53.654;10.014;2023-12-14T06:14:27;10.10;;;4.45;;
46507;SDS011;32223;53.654;10.014;2023-12-14T06:16:53;6.80;;;3.60;;
46507;SDS011;32223;53.654;10.014;2023-12-14T06:19:19;8.38;;;3.78;;
46507;SDS011;32223;53.654;10.014;2023-12-14T06:21:45;9.70;;;4.93;;
46507;SDS011;32223;53.654;10.014;2023-12-14T06:24:10;6.57;;;3.83;;
46507;SDS011;32223;53.654;10.014;2023-12-14T06:26:40;10.15;;;4.22;;
46507;SDS011;32223;53.654;10.014;2023-12-14T06:29:07;11.52;;;3.90;;
46507;SDS011;32223;53.654;10.014;2023-12-14T06:31:33;8.25;;;4.50;;
46507;SDS011;32223;53.654;10.014;2023-12-14T06:33:59;11.88;;;4.68;;
46507;SDS011;32223;53.654;10.014;2023-12-14T06:36:28;7.93;;;3.88;;
46507;SDS011;32223;53.654;10.014;2023-12-14T06:38:54;10.43;;;4.50;;
46507;SDS011;32223;53.654;10.014;2023-12-14T06:41:21;6.13;;;3.13;;
46507;SDS011;32223;53.654;10.014;2023-12-14T06:43:47;9.23;;;4.10;;
46507;SDS011;32223;53.654;10.014;2023-12-14T06:46:13;8.38;;;4.18;;
46507;SDS011;32223;53.654;10.014;2023-12-14T06:48:39;8.50;;;4.28;;
46507;SDS011;32223;53.654;10.014;2023-12-14T06:51:05;12.95;;;4.55;;
46507;SDS011;32223;53.654;10.014;2023-12-14T06:53:30;10.45;;;4.68;;
46507;SDS011;32223;53.654;10.014;2023-12-14T06:55:56;7.43;;;4.15;;
46507;SDS011;32223;53.654;10.014;2023-12-14T06:58:22;9.73;;;4.60;;
46507;SDS011;32223;53.654;10.014;2023-12-14T07:00:47;10.93;;;5.10;;
46507;SDS011;32223;53.654;10.014;2023-12-14T07:03:13;10.35;;;4.80;;
46507;SDS011;32223;53.654;10.014;2023-12-14T07:05:39;10.13;;;5.22;;
46507;SDS011;32223;53.654;10.014;2023-12-14T07:08:05;9.70;;;4.63;;
46507;SDS011;32223;53.654;10.014;2023-12-14T07:10:30;12.10;;;5.28;;
46507;SDS011;32223;53.654;10.014;2023-12-14T07:12:56;11.88;;;5.05;;
46507;SDS011;32223;53.654;10.014;2023-12-14T07:15:22;8.00;;;4.82;;
46507;SDS011;32223;53.654;10.014;2023-12-14T07:17:47;10.73;;;4.40;;
46507;SDS011;32223;53.654;10.014;2023-12-14T07:20:13;11.30;;;4.85;;
46507;SDS011;32223;53.654;10.014;2023-12-14T07:22:38;9.82;;;4.65;;
46507;SDS011;32223;53.654;10.014;2023-12-14T07:25:04;10.10;;;5.53;;
46507;SDS011;32223;53.654;10.014;2023-12-14T07:27:30;10.50;;;4.93;;
46507;SDS011;32223;53.654;10.014;2023-12-14T07:29:55;11.52;;;4.72;;
46507;SDS011;32223;53.654;10.014;2023-12-14T07:32:21;11.88;;;4.80;;
46507;SDS011;32223;53.654;10.014;2023-12-14T07:34:47;11.55;;;4.32;;
46507;SDS011;32223;53.654;10.014;2023-12-14T07:37:12;9.25;;;5.05;;
46507;SDS011;32223;53.654;10.014;2023-12-14T07:39:38;11.50;;;5.07;;
46507;SDS011;32223;53.654;10.014;2023-12-14T07:42:04;9.35;;;4.78;;
46507;SDS011;32223;53.654;10.014;2023-12-14T07:44:30;11.75;;;5.40;;
46507;SDS011;32223;53.654;10.014;2023-12-14T07:46:56;10.98;;;5.07;;
46507;SDS011;32223;53.654;10.014;2023-12-14T07:49:25;12.02;;;5.03;;
46507;SDS011;32223;53.654;10.014;2023-12-14T07:51:51;10.30;;;4.72;;
46507;SDS011;32223;53.654;10.014;2023-12-14T07:54:17;9.70;;;5.05;;
46507;SDS011;32223;53.654;10.014;2023-12-14T07:56:43;9.93;;;4.97;;
46507;SDS011;32223;53.654;10.014;2023-12-14T07:59:09;11.10;;;4.82;;
46507;SDS011;32223;53.654;10.014;2023-12-14T08:01:35;7.90;;;4.45;;
46507;SDS011;32223;53.654;10.014;2023-12-14T08:04:01;9.82;;;4.57;;
46507;SDS011;32223;53.654;10.014;2023-12-14T08:06:26;15.80;;;5.63;;
46507;SDS011;32223;53.654;10.014;2023-12-14T08:08:52;8.60;;;4.35;;
46507;SDS011;32223;53.654;10.014;2023-12-14T08:11:18;10.90;;;5.20;;
46507;SDS011;32223;53.654;10.014;2023-12-14T08:13:43;9.77;;;4.25;;
46507;SDS011;32223;53.654;10.014;2023-12-14T08:16:09;9.15;;;5.00;;
46507;SDS011;32223;53.654;10.014;2023-12-14T08:18:36;8.65;;;5.15;;
46507;SDS011;32223;53.654;10.014;2023-12-14T08:21:02;13.18;;;5.20;;
46507;SDS011;32223;53.654;10.014;2023-12-14T08:23:28;8.07;;;5.38;;
46507;SDS011;32223;53.654;10.014;2023-12-14T08:25:55;8.73;;;4.30;;
46507;SDS011;32223;53.654;10.014;2023-12-14T08:28:24;7.28;;;3.88;;
46507;SDS011;32223;53.654;10.014;2023-12-14T08:30:50;8.52;;;3.72;;
46507;SDS011;32223;53.654;10.014;2023-12-14T08:33:16;8.55;;;3.70;;
46507;SDS011;32223;53.654;10.014;2023-12-14T08:35:42;9.40;;;4.57;;
46507;SDS011;32223;53.654;10.014;2023-12-14T08:38:08;10.93;;;4.32;;
46507;SDS011;32223;53.654;10.014;2023-12-14T08:40:35;6.90;;;3.47;;
46507;SDS011;32223;53.654;10.014;2023-12-14T08:43:01;6.85;;;3.72;;
46507;SDS011;32223;53.654;10.014;2023-12-14T08:45:28;9.27;;;3.80;;
46507;SDS011;32223;53.654;10.014;2023-12-14T08:47:53;8.05;;;3.38;;
46507;SDS011;32223;53.654;10.014;2023-12-14T08:50:19;7.97;;;3.63;;
46507;SDS011;32223;53.654;10.014;2023-12-14T08:52:45;7.43;;;3.75;;
46507;SDS011;32223;53.654;10.014;2023-12-14T08:55:11;8.50;;;3.97;;
46507;SDS011;32223;53.654;10.014;2023-12-14T08:57:36;7.53;;;3.65;;
46507;SDS011;32223;53.654;10.014;2023-12-14T09:00:02;10.98;;;5.97;;
46507;SDS011;32223;53.654;10.014;2023-12-14T09:02:31;9.60;;;3.90;;
46507;SDS011;32223;53.654;10.014;2023-12-14T09:04:57;12.05;;;4.43;;
46507;SDS011;32223;53.654;10.014;2023-12-14T09:07:23;9.95;;;4.25;;
46507;SDS011;32223;53.654;10.014;2023-12-14T09:09:48;10.32;;;4.07;;
46507;SDS011;32223;53.654;10.014;2023-12-14T09:12:14;6.78;;;3.33;;
46507;SDS011;32223;53.654;10.014;2023-12-14T09:14:40;8.18;;;4.15;;
46507;SDS011;32223;53.654;10.014;2023-12-14T09:17:06;11.23;;;4.05;;
46507;SDS011;32223;53.654;10.014;2023-12-14T09:19:31;7.40;;;4.38;;
46507;SDS011;32223;53.654;10.014;2023-12-14T09:21:57;7.60;;;4.35;;
46507;SDS011;32223;53.654;10.014;2023-12-14T09:24:23;7.30;;;3.85;;
46507;SDS011;32223;53.654;10.014;2023-12-14T09:26:49;7.03;;;3.92;;
46507;SDS011;32223;53.654;10.014;2023-12-14T09:29:14;8.55;;;3.88;;
46507;SDS011;32223;53.654;10.014;2023-12-14T09:31:41;11.88;;;3.90;;
46507;SDS011;32223;53.654;10.014;2023-12-14T09:34:07;9.98;;;4.82;;
46507;SDS011;32223;53.654;10.014;2023-12-14T09:36:33;6.25;;;3.88;;
46507;SDS011;32223;53.654;10.014;2023-12-14T09:38:59;8.18;;;4.28;;
46507;SDS011;32223;53.654;10.014;2023-12-14T09:41:24;6.55;;;3.63;;
46507;SDS011;32223;53.654;10.014;2023-12-14T09:43:51;8.90;;;3.58;;
46507;SDS011;32223;53.654;10.014;2023-12-14T09:46:17;10.40;;;4.35;;
46507;SDS011;32223;53.654;10.014;2023-12-14T09:48:44;6.05;;;3.35;;
46507;SDS011;32223;53.654;10.014;2023-12-14T09:51:12;7.85;;;3.80;;
46507;SDS011;32223;53.654;10.014;2023-12-14T09:53:37;7.38;;;4.00;;
46507;SDS011;32223;53.654;10.014;2023-12-14T09:56:03;5.72;;;3.53;;
46507;SDS011;32223;53.654;10.014;2023-12-14T09:58:32;6.88;;;4.65;;
46507;SDS011;32223;53.654;10.014;2023-12-14T10:00:58;8.48;;;3.95;;
46507;SDS011;32223;53.654;10.014;2023-12-14T10:03:26;6.40;;;3.70;;
46507;SDS011;32223;53.654;10.014;2023-12-14T10:05:56;11.70;;;4.68;;
46507;SDS011;32223;53.654;10.014;2023-12-14T10:08:23;7.70;;;3.83;;
46507;SDS011;32223;53.654;10.014;2023-12-14T10:10:51;9.50;;;3.42;;
46507;SDS011;32223;53.654;10.014;2023-12-14T10:13:22;10.02;;;4.22;;
46507;SDS011;32223;53.654;10.014;2023-12-14T10:16:03;5.72;;;3.28;;
46507;SDS011;32223;53.654;10.014;2023-12-14T10:18:29;6.07;;;3.78;;
46507;SDS011;32223;53.654;10.014;2023-12-14T10:20:59;7.10;;;4.13;;
46507;SDS011;32223;53.654;10.014;2023-12-14T10:23:25;6.38;;;3.65;;
46507;SDS011;32223;53.654;10.014;2023-12-14T10:25:52;6.45;;;3.50;;
46507;SDS011;32223;53.654;10.014;2023-12-14T10:28:18;7.57;;;4.25;;
46507;SDS011;32223;53.654;10.014;2023-12-14T10:30:44;8.88;;;4.18;;
46507;SDS011;32223;53.654;10.014;2023-12-14T10:33:10;9.60;;;5.60;;
46507;SDS011;32223;53.654;10.014;2023-12-14T10:35:35;6.78;;;3.72;;
46507;SDS011;32223;53.654;10.014;2023-12-14T10:38:02;6.88;;;4.15;;
46507;SDS011;32223;53.654;10.014;2023-12-14T10:40:33;7.07;;;4.05;;
46507;SDS011;32223;53.654;10.014;2023-12-14T10:43:01;7.68;;;3.90;;
46507;SDS011;32223;53.654;10.014;2023-12-14T10:45:29;7.07;;;3.75;;
46507;SDS011;32223;53.654;10.014;2023-12-14T10:47:58;6.60;;;4.15;;
46507;SDS011;32223;53.654;10.014;2023-12-14T10:50:26;6.45;;;3.92;;
46507;SDS011;32223;53.654;10.014;2023-12-14T10:52:54;9.18;;;4.45;;
46507;SDS011;32223;53.654;10.014;2023-12-14T10:57:52;6.90;;;3.75;;
46507;SDS011;32223;53.654;10.014;2023-12-14T11:00:18;6.70;;;4.13;;
46507;SDS011;32223;53.654;10.014;2023-12-14T11:02:47;7.95;;;4.15;;
46507;SDS011;32223;53.654;10.014;2023-12-14T11:05:13;9.35;;;4.53;;
46507;SDS011;32223;53.654;10.014;2023-12-14T11:07:52;6.28;;;3.03;;
46507;SDS011;32223;53.654;10.014;2023-12-14T11:10:23;7.05;;;3.70;;
46507;SDS011;32223;53.654;10.014;2023-12-14T11:13:09;6.20;;;3.88;;
46507;SDS011;32223;53.654;10.014;2023-12-14T11:15:38;6.70;;;4.35;;
46507;SDS011;32223;53.654;10.014;2023-12-14T11:23:15;8.88;;;4.38;;
46507;SDS011;32223;53.654;10.014;2023-12-14T11:25:42;7.05;;;4.38;;
46507;SDS011;32223;53.654;10.014;2023-12-14T11:28:08;7.05;;;3.67;;
46507;SDS011;32223;53.654;10.014;2023-12-14T11:30:35;9.77;;;4.30;;
46507;SDS011;32223;53.654;10.014;2023-12-14T11:33:01;13.30;;;4.85;;
46507;SDS011;32223;53.654;10.014;2023-12-14T11:35:27;6.80;;;3.80;;
46507;SDS011;32223;53.654;10.014;2023-12-14T11:37:53;8.07;;;4.40;;
46507;SDS011;32223;53.654;10.014;2023-12-14T11:40:21;6.43;;;3.72;;
46507;SDS011;32223;53.654;10.014;2023-12-14T11:43:03;10.00;;;4.63;;
46507;SDS011;32223;53.654;10.014;2023-12-14T11:45:39;7.87;;;3.77;;
46507;SDS011;32223;53.654;10.014;2023-12-14T11:48:07;7.80;;;3.55;;
46507;SDS011;32223;53.654;10.014;2023-12-14T11:50:35;8.50;;;4.88;;
46507;SDS011;32223;53.654;10.014;2023-12-14T11:53:02;7.15;;;4.43;;
46507;SDS011;32223;53.654;10.014;2023-12-14T11:55:32;9.02;;;3.78;;
46507;SDS011;32223;53.654;10.014;2023-12-14T11:57:59;11.45;;;3.67;;
46507;SDS011;32223;53.654;10.014;2023-12-14T12:00:25;8.35;;;3.80;;
46507;SDS011;32223;53.654;10.014;2023-12-14T12:02:52;8.20;;;4.22;;
46507;SDS011;32223;53.654;10.014;2023-12-14T12:05:35;9.50;;;3.97;;
46507;SDS011;32223;53.654;10.014;2023-12-14T12:08:05;12.57;;;4.82;;
46507;SDS011;32223;53.654;10.014;2023-12-14T12:10:31;8.27;;;4.07;;
46507;SDS011;32223;53.654;10.014;2023-12-14T12:13:01;9.88;;;3.65;;
46507;SDS011;32223;53.654;10.014;2023-12-14T12:15:29;10.23;;;4.55;;
46507;SDS011;32223;53.654;10.014;2023-12-14T12:18:02;8.10;;;3.72;;
46507;SDS011;32223;53.654;10.014;2023-12-14T12:20:31;8.25;;;4.00;;
46507;SDS011;32223;53.654;10.014;2023-12-14T12:22:57;8.70;;;5.05;;
46507;SDS011;32223;53.654;10.014;2023-12-14T12:25:23;8.07;;;4.80;;
46507;SDS011;32223;53.654;10.014;2023-12-14T12:27:49;9.15;;;3.95;;
46507;SDS011;32223;53.654;10.014;2023-12-14T12:30:15;7.47;;;4.40;;
46507;SDS011;32223;53.654;10.014;2023-12-14T12:32:40;11.45;;;4.35;;
46507;SDS011;32223;53.654;10.014;2023-12-14T12:35:07;10.10;;;4.80;;
46507;SDS011;32223;53.654;10.014;2023-12-14T12:37:33;7.78;;;4.43;;
46507;SDS011;32223;53.654;10.014;2023-12-14T12:39:59;9.80;;;4.78;;
46507;SDS011;32223;53.654;10.014;2023-12-14T12:42:24;8.73;;;4.32;;
46507;SDS011;32223;53.654;10.014;2023-12-14T12:44:50;8.50;;;3.95;;
46507;SDS011;32223;53.654;10.014;2023-12-14T12:47:16;7.43;;;3.90;;
46507;SDS011;32223;53.654;10.014;2023-12-14T12:49:42;10.32;;;5.95;;
46507;SDS011;32223;53.654;10.014;2023-12-14T12:52:08;9.82;;;4.75;;
46507;SDS011;32223;53.654;10.014;2023-12-14T12:54:34;13.77;;;4.97;;
46507;SDS011;32223;53.654;10.014;2023-12-14T12:57:00;9.02;;;4.45;;
46507;SDS011;32223;53.654;10.014;2023-12-14T12:59:25;8.60;;;5.00;;
46507;SDS011;32223;53.654;10.014;2023-12-14T13:01:53;11.27;;;4.65;;
46507;SDS011;32223;53.654;10.014;2023-12-14T13:04:22;8.30;;;3.97;;
46507;SDS011;32223;53.654;10.014;2023-12-14T13:06:48;10.02;;;4.03;;
46507;SDS011;32223;53.654;10.014;2023-12-14T13:09:17;8.10;;;4.00;;
46507;SDS011;32223;53.654;10.014;2023-12-14T13:11:44;8.32;;;4.55;;
46507;SDS011;32223;53.654;10.014;2023-12-14T13:14:10;11.25;;;5.40;;
46507;SDS011;32223;53.654;10.014;2023-12-14T13:16:37;9.38;;;4.65;;
46507;SDS011;32223;53.654;10.014;2023-12-14T13:19:03;6.50;;;3.83;;
46507;SDS011;32223;53.654;10.014;2023-12-14T13:21:29;9.57;;;4.30;;
46507;SDS011;32223;53.654;10.014;2023-12-14T13:23:55;10.43;;;4.28;;
46507;SDS011;32223;53.654;10.014;2023-12-14T13:26:24;9.65;;;4.03;;
46507;SDS011;32223;53.654;10.014;2023-12-14T13:28:50;9.45;;;4.60;;
46507;SDS011;32223;53.654;10.014;2023-12-14T13:31:16;8.63;;;5.28;;
46507;SDS011;32223;53.654;10.014;2023-12-14T13:33:42;9.55;;;3.90;;
46507;SDS011;32223;53.654;10.014;2023-12-14T13:36:08;6.68;;;4.05;;
46507;SDS011;32223;53.654;10.014;2023-12-14T13:38:34;9.02;;;5.18;;
46507;SDS011;32223;53.654;10.014;2023-12-14T13:41:01;7.53;;;3.72;;
46507;SDS011;32223;53.654;10.014;2023-12-14T13:43:28;11.23;;;4.45;;
46507;SDS011;32223;53.654;10.014;2023-12-14T13:45:54;7.03;;;3.85;;
46507;SDS011;32223;53.654;10.014;2023-12-14T13:48:23;9.88;;;3.63;;
46507;SDS011;32223;53.654;10.014;2023-12-14T13:50:49;7.03;;;4.07;;
46507;SDS011;32223;53.654;10.014;2023-12-14T13:53:15;9.35;;;4.07;;
46507;SDS011;32223;53.654;10.014;2023-12-14T13:55:41;6.97;;;4.20;;
46507;SDS011;32223;53.654;10.014;2023-12-14T13:58:06;7.55;;;3.63;;
46507;SDS011;32223;53.654;10.014;2023-12-14T14:00:32;9.65;;;4.68;;
46507;SDS011;32223;53.654;10.014;2023-12-14T14:02:59;8.38;;;3.97;;
46507;SDS011;32223;53.654;10.014;2023-12-14T14:05:25;9.57;;;3.45;;
46507;SDS011;32223;53.654;10.014;2023-12-14T14:07:52;8.18;;;4.10;;
46507;SDS011;32223;53.654;10.014;2023-12-14T14:10:19;7.95;;;3.70;;
46507;SDS011;32223;53.654;10.014;2023-12-14T14:12:45;7.63;;;4.00;;
46507;SDS011;32223;53.654;10.014;2023-12-14T14:15:11;8.68;;;3.88;;
46507;SDS011;32223;53.654;10.014;2023-12-14T14:17:37;8.23;;;4.68;;
46507;SDS011;32223;53.654;10.014;2023-12-14T14:20:03;8.27;;;4.00;;
46507;SDS011;32223;53.654;10.014;2023-12-14T14:22:30;5.47;;;3.10;;
46507;SDS011;32223;53.654;10.014;2023-12-14T14:24:56;8.48;;;3.67;;
46507;SDS011;32223;53.654;10.014;2023-12-14T14:27:21;7.50;;;3.60;;
46507;SDS011;32223;53.654;10.014;2023-12-14T14:29:47;5.93;;;3.97;;
46507;SDS011;32223;53.654;10.014;2023-12-14T14:32:14;7.47;;;3.63;;
46507;SDS011;32223;53.654;10.014;2023-12-14T14:34:40;6.10;;;3.13;;
46507;SDS011;32223;53.654;10.014;2023-12-14T14:37:07;5.55;;;3.38;;